Time;durP1;ratioP1;P1;durP2;ratioP2;P2;SDS_P1;SDS_P2;PMS_P1;PMS_P2;Temp;Humidity;BMP_temperature;BMP_pressure;BME280_temperature;BME280_humidity;BME280_pressure;Samples;Min_cycle;Max_cycle;Signal;HPM_P1;HPM_P2
2021/08/22 00:02:07;;;;;;;10.05;7.70;;;;;;;14.78;76.02;97048.30;127554;1093;23465;-82
2021/08/22 00:04:39;;;;;;;10.28;7.95;;;;;;;14.70;76.17;97048.96;127563;1092;24715;-82
2021/08/22 00:07:10;;;;;;;8.43;7.10;;;;;;;14.66;76.52;97047.97;127605;1093;25569;-83
2021/08/22 00:09:42;;;;;;;9.85;7.55;;;;;;;14.64;76.52;97044.81;127587;1093;26459;-83
2021/08/22 00:12:13;;;;;;;9.23;7.03;;;;;;;14.66;76.41;97041.84;127538;1093;24044;-81
2021/08/22 00:14:44;;;;;;;10.03;7.40;;;;;;;14.68;76.40;97037.80;127538;1093;25913;-82
2021/08/22 00:17:16;;;;;;;9.10;7.40;;;;;;;14.73;76.41;97039.57;127556;1093;24020;-83
2021/08/22 00:19:48;;;;;;;9.33;7.80;;;;;;;14.70;76.40;97035.62;127627;1093;36954;-83
2021/08/22 00:22:20;;;;;;;10.67;7.73;;;;;;;14.70;76.24;97027.61;127637;1093;24388;-82
2021/08/22 00:24:51;;;;;;;10.33;8.25;;;;;;;14.62;76.01;97030.16;127629;1092;23773;-82
2021/08/22 00:27:23;;;;;;;10.75;7.50;;;;;;;14.63;76.11;97029.86;127634;1093;24620;-83
2021/08/22 00:29:54;;;;;;;8.90;7.40;;;;;;;14.60;76.23;97029.66;127591;1093;29725;-80
2021/08/22 00:32:26;;;;;;;10.83;7.63;;;;;;;14.60;76.30;97033.12;127560;1091;22836;-82
2021/08/22 00:34:57;;;;;;;10.30;7.65;;;;;;;14.65;76.34;97034.92;127619;1093;27673;-82
2021/08/22 00:37:29;;;;;;;10.03;7.83;;;;;;;14.70;76.32;97037.50;127569;1093;23236;-82
2021/08/22 00:40:01;;;;;;;10.00;7.83;;;;;;;14.69;76.03;97034.03;127595;1093;32037;-81
2021/08/22 00:42:36;;;;;;;10.45;8.13;;;;;;;14.68;76.33;97035.13;127573;1093;26124;-82
2021/08/22 00:45:10;;;;;;;11.10;8.18;;;;;;;14.67;76.24;97035.42;127636;1093;26393;-82
2021/08/22 00:47:42;;;;;;;9.80;7.88;;;;;;;14.66;76.56;97031.96;127541;1092;28785;-83
2021/08/22 00:50:20;;;;;;;;;;;;;;;14.59;76.52;97034.20;127605;1093;28523;-83
2021/08/22 00:52:53;;;;;;;12.33;8.13;;;;;;;14.52;76.54;97034.59;127756;1093;27827;-82
2021/08/22 00:55:25;;;;;;;10.70;8.33;;;;;;;14.55;76.88;97033.22;127655;1093;28471;-83
2021/08/22 00:57:56;;;;;;;10.40;8.53;;;;;;;14.61;76.76;97034.70;127589;1093;27191;-82
2021/08/22 01:00:28;;;;;;;10.70;8.95;;;;;;;14.58;76.79;97027.28;127620;1093;28851;-83
2021/08/22 01:03:09;;;;;;;10.48;8.50;;;;;;;14.52;76.92;97031.14;127686;1093;28794;-82
2021/08/22 01:05:48;;;;;;;10.93;8.55;;;;;;;14.48;76.98;97025.58;127674;1093;26077;-83
2021/08/22 01:08:26;;;;;;;11.58;8.40;;;;;;;14.49;77.04;97023.70;127695;1092;24625;-82
2021/08/22 01:11:02;;;;;;;9.48;8.18;;;;;;;14.44;77.02;97027.25;127740;1093;22871;-81
2021/08/22 01:13:38;;;;;;;11.00;8.30;;;;;;;14.41;77.13;97022.48;127623;1093;22772;-84
2021/08/22 01:16:11;;;;;;;11.48;8.65;;;;;;;14.44;77.23;97026.46;127578;1093;25623;-83
2021/08/22 01:18:46;;;;;;;12.53;8.43;;;;;;;14.45;77.34;97025.38;127585;1093;24609;-82
2021/08/22 01:21:20;;;;;;;10.98;9.45;;;;;;;14.39;77.00;97013.98;127605;1093;22961;-83
2021/08/22 01:23:55;;;;;;;10.98;8.30;;;;;;;14.36;76.91;97019.11;127709;1093;22822;-82
2021/08/22 01:26:31;;;;;;;11.18;8.63;;;;;;;14.32;77.17;97018.09;127602;1092;23878;-81
2021/08/22 01:29:03;;;;;;;10.70;8.18;;;;;;;14.31;77.55;97027.17;127578;1093;26680;-82
2021/08/22 01:31:41;;;;;;;9.87;7.97;;;;;;;14.38;77.69;97017.73;127595;1093;23905;-82
2021/08/22 01:34:14;;;;;;;11.48;8.73;;;;;;;14.45;77.71;97014.70;127634;1093;22867;-83
2021/08/22 01:36:47;;;;;;;10.60;8.93;;;;;;;14.49;77.67;97016.48;127614;1093;27057;-82
2021/08/22 01:39:20;;;;;;;10.73;8.33;;;;;;;14.54;77.63;97016.42;127703;1092;26292;-82
2021/08/22 01:41:53;;;;;;;11.90;8.43;;;;;;;14.52;77.76;97015.92;127669;1093;27641;-83
2021/08/22 01:44:26;;;;;;;11.63;8.50;;;;;;;14.52;77.63;97017.80;127535;1093;43537;-81
2021/08/22 01:46:58;;;;;;;11.95;8.88;;;;;;;14.54;77.54;97016.42;127575;1093;26408;-82
2021/08/22 01:49:30;;;;;;;10.98;7.98;;;;;;;14.58;77.59;97019.28;127584;1093;23139;-81
2021/08/22 01:52:02;;;;;;;12.08;8.78;;;;;;;14.61;77.47;97016.02;127563;1093;30785;-84
2021/08/22 01:54:33;;;;;;;13.33;8.80;;;;;;;14.62;77.44;97019.48;127550;1093;23687;-82
2021/08/22 01:57:05;;;;;;;12.60;8.45;;;;;;;14.61;77.36;97012.56;127582;1093;24782;-82
2021/08/22 01:59:39;;;;;;;12.43;8.73;;;;;;;14.57;76.99;97014.24;127695;1093;28356;-82
2021/08/22 02:02:11;;;;;;;11.27;9.10;;;;;;;14.50;77.17;97018.09;127624;1092;26178;-82
2021/08/22 02:04:49;;;;;;;9.83;8.18;;;;;;;14.43;77.30;97017.64;127584;1093;23179;-81
2021/08/22 02:07:23;;;;;;;11.58;8.43;;;;;;;14.38;77.43;97014.27;127659;1093;24585;-82
2021/08/22 02:10:02;;;;;;;11.60;8.48;;;;;;;14.37;77.53;97016.16;127568;1092;23176;-82
2021/08/22 02:12:35;;;;;;;11.08;8.58;;;;;;;14.40;77.80;97004.89;127531;1093;25996;-84
2021/08/22 02:15:12;;;;;;;10.13;8.25;;;;;;;14.45;77.86;97012.03;127769;1093;24145;-82
2021/08/22 02:17:50;;;;;;;10.55;8.08;;;;;;;14.52;77.91;97015.13;127579;1093;22893;-82
2021/08/22 02:20:23;;;;;;;12.80;8.67;;;;;;;14.57;77.92;97015.03;127619;1093;22816;-82
2021/08/22 02:22:56;;;;;;;11.35;8.53;;;;;;;14.59;78.00;97015.53;127569;1093;24961;-81
2021/08/22 02:25:31;;;;;;;12.40;8.68;;;;;;;14.61;77.69;97009.89;127569;1093;26201;-82
2021/08/22 02:28:04;;;;;;;11.23;8.88;;;;;;;14.57;77.78;97006.23;127585;1092;22843;-82
2021/08/22 02:30:38;;;;;;;12.48;8.85;;;;;;;14.59;77.83;97006.73;127577;1093;34208;-83
2021/08/22 02:33:10;;;;;;;11.53;9.25;;;;;;;14.61;77.83;97008.02;127545;1093;33009;-82
2021/08/22 02:35:41;;;;;;;11.40;8.73;;;;;;;14.57;77.81;97007.03;127576;1092;26175;-82
2021/08/22 02:38:13;;;;;;;10.28;8.93;;;;;;;14.43;77.87;97003.51;127555;1093;28001;-83
2021/08/22 02:40:44;;;;;;;12.73;9.05;;;;;;;14.33;78.13;97003.67;127572;1093;24394;-82
2021/08/22 02:43:16;;;;;;;10.85;9.20;;;;;;;14.23;78.17;97005.44;127564;1093;22806;-82
2021/08/22 02:45:47;;;;;;;11.65;8.95;;;;;;;14.25;78.52;97003.27;127602;1092;24286;-82
2021/08/22 02:48:19;;;;;;;12.55;9.23;;;;;;;14.29;78.58;96997.34;127587;1093;23968;-83
2021/08/22 02:50:50;;;;;;;11.73;8.78;;;;;;;14.32;78.60;96986.88;127662;1093;22826;-82
2021/08/22 02:53:21;;;;;;;10.28;8.13;;;;;;;14.29;78.59;96998.14;127588;1093;27109;-82
2021/08/22 02:55:53;;;;;;;11.15;8.48;;;;;;;14.26;78.85;96990.73;127668;1092;26260;-83
2021/08/22 02:58:24;;;;;;;12.35;9.05;;;;;;;14.22;78.87;96990.53;127616;1091;23385;-81
2021/08/22 03:00:56;;;;;;;10.50;8.95;;;;;;;14.25;78.94;96989.94;127575;1093;27288;-81
2021/08/22 03:03:27;;;;;;;9.93;8.23;;;;;;;14.30;78.92;96994.38;127579;1093;22858;-82
2021/08/22 03:05:58;;;;;;;13.75;9.20;;;;;;;14.34;78.72;96994.58;127624;1093;24944;-82
2021/08/22 03:08:30;;;;;;;11.85;8.65;;;;;;;14.39;78.81;96989.19;127547;1092;23897;-82
2021/08/22 03:11:01;;;;;;;11.18;8.08;;;;;;;14.40;78.58;96988.09;127555;1093;27171;-81
2021/08/22 03:13:33;;;;;;;11.53;9.00;;;;;;;14.43;78.67;96987.50;127617;1093;22811;-82
2021/08/22 03:16:04;;;;;;;12.33;9.43;;;;;;;14.41;78.51;96985.13;127580;1093;22826;-82
2021/08/22 03:18:36;;;;;;;10.48;8.48;;;;;;;14.44;78.67;96986.45;127566;1092;23686;-82
2021/08/22 03:21:07;;;;;;;10.83;8.70;;;;;;;14.48;78.79;96982.89;127590;1093;25887;-83
2021/08/22 03:23:38;;;;;;;11.63;8.45;;;;;;;14.45;78.70;96988.03;127585;1093;22964;-82
2021/08/22 03:26:10;;;;;;;11.57;8.77;;;;;;;14.39;78.78;96986.52;127589;1093;22787;-83
2021/08/22 03:28:42;;;;;;;11.83;9.18;;;;;;;14.35;78.98;96985.50;127551;1093;28296;-83
2021/08/22 03:31:13;;;;;;;10.20;8.43;;;;;;;14.36;79.03;96992.44;127547;1091;23543;-82
2021/08/22 03:33:45;;;;;;;10.43;8.75;;;;;;;14.32;79.01;96994.09;127560;1093;23739;-83
2021/08/22 03:36:18;;;;;;;10.48;8.65;;;;;;;14.27;79.27;96981.64;127615;1092;23457;-82
2021/08/22 03:38:49;;;;;;;13.30;9.58;;;;;;;14.27;79.42;96984.30;127537;1093;30267;-82
2021/08/22 03:41:20;;;;;;;12.55;9.08;;;;;;;14.31;79.49;96984.51;127648;1092;24454;-82
2021/08/22 03:43:52;;;;;;;12.25;9.05;;;;;;;14.26;79.22;96986.19;127808;1093;23168;-83
2021/08/22 03:46:23;;;;;;;12.00;9.43;;;;;;;14.24;79.21;96996.36;127747;1093;74005;-83
2021/08/22 03:48:54;;;;;;;10.90;8.80;;;;;;;14.25;79.42;96986.48;127743;1093;23313;-82
2021/08/22 03:51:26;;;;;;;11.33;9.50;;;;;;;14.30;79.50;96993.59;127591;1093;28141;-82
2021/08/22 03:53:58;;;;;;;11.03;8.85;;;;;;;14.34;79.64;96989.25;127583;1092;34004;-82
2021/08/22 03:56:29;;;;;;;12.10;9.23;;;;;;;14.35;79.57;96983.63;127593;1093;26471;-82
2021/08/22 03:59:06;;;;;;;11.33;8.53;;;;;;;14.37;79.65;96981.48;127605;1093;25440;-82
2021/08/22 04:01:38;;;;;;;11.55;8.53;;;;;;;14.36;79.65;96990.56;127602;1093;27863;-83
2021/08/22 04:04:10;;;;;;;10.98;8.70;;;;;;;14.36;79.69;96987.11;127534;1093;23445;-83
2021/08/22 04:06:47;;;;;;;12.73;8.85;;;;;;;14.37;79.57;96983.35;127649;1093;28309;-82
2021/08/22 04:09:20;;;;;;;12.20;9.50;;;;;;;14.35;79.70;96980.95;127618;1093;31483;-83
2021/08/22 04:11:56;;;;;;;13.63;9.28;;;;;;;14.32;79.93;96983.42;127659;1093;24565;-83
2021/08/22 04:14:27;;;;;;;11.63;9.10;;;;;;;14.32;79.90;96989.55;127630;1093;26830;-82
2021/08/22 04:17:00;;;;;;;11.18;8.58;;;;;;;14.38;80.12;96984.94;127585;1092;23488;-82
2021/08/22 04:19:31;;;;;;;11.80;8.75;;;;;;;14.45;80.05;96982.69;127530;1093;27579;-82
2021/08/22 04:22:03;;;;;;;12.00;9.45;;;;;;;14.54;80.02;96989.73;127550;1093;38217;-82
2021/08/22 04:24:35;;;;;;;9.05;7.30;;;;;;;14.52;79.63;96986.58;127583;1093;25140;-82
2021/08/22 04:27:08;;;;;;;9.30;7.73;;;;;;;14.69;79.60;96985.21;127549;1093;70084;-82
2021/08/22 04:29:41;;;;;;;9.90;8.10;;;;;;;15.41;80.16;96986.17;127632;1093;27008;-83
2021/08/22 04:32:13;;;;;;;11.88;8.40;;;;;;;16.31;79.22;96980.93;127598;1093;23609;-83
2021/08/22 04:34:44;;;;;;;12.13;8.70;;;;;;;17.02;77.76;96979.09;127610;1092;23616;-82
2021/08/22 04:37:15;;;;;;;11.10;8.70;;;;;;;17.65;76.78;96979.72;127622;1092;22816;-82
2021/08/22 04:39:47;;;;;;;11.80;8.70;;;;;;;18.35;75.72;96982.07;127612;1093;25653;-82
2021/08/22 04:42:18;;;;;;;10.28;8.50;;;;;;;18.92;73.75;96981.77;127574;1093;24993;-82
2021/08/22 04:44:49;;;;;;;11.08;8.30;;;;;;;19.47;73.26;96972.00;127633;1093;24625;-82
2021/08/22 04:47:21;;;;;;;9.78;7.68;;;;;;;20.12;71.98;96968.64;127605;1093;25150;-82
2021/08/22 04:49:53;;;;;;;10.78;8.25;;;;;;;20.60;70.24;96986.12;127592;1093;34618;-83
2021/08/22 04:52:24;;;;;;;9.20;7.35;;;;;;;21.05;69.02;96985.27;127629;1092;23765;-83
2021/08/22 04:54:55;;;;;;;8.88;7.28;;;;;;;21.49;67.57;96977.41;127550;1093;25058;-82
2021/08/22 04:57:27;;;;;;;10.87;7.63;;;;;;;21.60;65.02;96978.52;127630;1093;23593;-82
2021/08/22 04:59:58;;;;;;;10.97;7.47;;;;;;;21.58;64.11;96978.08;127623;1093;29832;-82
2021/08/22 05:02:30;;;;;;;11.10;7.98;;;;;;;21.59;63.51;96982.35;127598;1093;27444;-83
2021/08/22 05:05:01;;;;;;;8.33;6.70;;;;;;;21.92;62.69;96977.53;127730;1093;25754;-83
2021/08/22 05:07:33;;;;;;;11.05;6.75;;;;;;;22.36;62.65;96976.81;127643;1093;32732;-82
2021/08/22 05:10:04;;;;;;;11.48;7.40;;;;;;;22.55;60.81;96976.17;127553;1093;29765;-83
2021/08/22 05:12:36;;;;;;;8.03;6.40;;;;;;;22.71;60.35;96980.46;127519;1093;32314;-82
2021/08/22 05:15:10;;;;;;;9.15;7.45;;;;;;;23.02;59.68;96982.41;127570;1093;28620;-82
2021/08/22 05:17:42;;;;;;;7.78;6.73;;;;;;;23.14;58.09;96978.05;127573;1093;25245;-83
2021/08/22 05:20:14;;;;;;;8.60;6.78;;;;;;;23.51;59.28;96981.23;127559;1093;24418;-82
2021/08/22 05:22:45;;;;;;;7.95;6.70;;;;;;;23.95;57.44;96976.40;127569;1093;25135;-83
2021/08/22 05:25:17;;;;;;;8.98;6.40;;;;;;;24.48;56.45;96971.23;127596;1093;26666;-83
2021/08/22 05:27:48;;;;;;;7.35;6.30;;;;;;;24.87;56.70;96972.70;127531;1093;26103;-83
2021/08/22 05:30:20;;;;;;;9.13;6.50;;;;;;;25.32;55.75;96968.39;127640;1093;27315;-83
2021/08/22 05:32:51;;;;;;;7.50;6.33;;;;;;;25.77;54.72;96977.61;127627;1093;24870;-83
2021/08/22 05:35:23;;;;;;;6.88;6.10;;;;;;;26.16;53.75;96978.06;127650;1093;33536;-83
2021/08/22 05:37:54;;;;;;;8.83;6.73;;;;;;;26.62;53.49;96972.39;127678;1093;25480;-83
2021/08/22 05:40:26;;;;;;;7.58;6.13;;;;;;;27.02;52.01;96974.31;127578;1092;26098;-83
2021/08/22 05:42:57;;;;;;;8.53;6.85;;;;;;;27.42;50.87;96975.38;127594;1093;27160;-83
2021/08/22 05:45:29;;;;;;;10.10;6.53;;;;;;;27.69;50.20;96974.02;127653;1092;31207;-83
2021/08/22 05:48:00;;;;;;;7.40;6.30;;;;;;;27.77;50.36;96970.19;127570;1093;24923;-83
2021/08/22 05:50:32;;;;;;;10.45;6.13;;;;;;;26.67;48.00;96966.61;127593;1093;25994;-82
2021/08/22 05:53:03;;;;;;;9.80;6.60;;;;;;;25.68;48.76;96971.63;127578;1093;23755;-83
2021/08/22 05:55:35;;;;;;;8.30;6.83;;;;;;;24.90;50.68;96973.13;127653;1093;27065;-83
2021/08/22 05:58:06;;;;;;;8.38;6.40;;;;;;;24.54;50.01;96969.81;127575;1093;25954;-83
2021/08/22 06:00:38;;;;;;;7.33;6.13;;;;;;;24.96;49.77;96967.05;127572;1093;27127;-83
2021/08/22 06:03:10;;;;;;;8.35;6.45;;;;;;;26.06;51.69;96967.09;127575;1093;26261;-83
2021/08/22 06:05:41;;;;;;;7.80;6.50;;;;;;;27.55;48.60;96970.41;127583;1093;25700;-83
2021/08/22 06:08:13;;;;;;;7.88;6.05;;;;;;;28.06;47.58;96964.86;127568;1093;24712;-83
2021/08/22 06:10:45;;;;;;;9.25;6.10;;;;;;;28.92;47.85;96966.66;127612;1093;23153;-83
2021/08/22 06:13:16;;;;;;;8.18;5.88;;;;;;;29.33;45.67;96963.52;127572;1093;27691;-83
2021/08/22 06:15:48;;;;;;;9.23;5.98;;;;;;;30.04;45.14;96970.77;127589;1093;29300;-84
2021/08/22 06:18:21;;;;;;;9.03;5.60;;;;;;;30.46;42.88;96961.61;127539;1093;29609;-83
2021/08/22 06:20:52;;;;;;;6.70;5.83;;;;;;;30.46;42.56;96971.77;127632;1093;23537;-83
2021/08/22 06:23:24;;;;;;;9.78;6.38;;;;;;;30.84;40.33;96964.53;127631;1093;26054;-83
2021/08/22 06:25:56;;;;;;;6.40;5.63;;;;;;;30.26;40.83;96968.73;127606;1093;25502;-82
2021/08/22 06:28:27;;;;;;;7.18;5.53;;;;;;;30.75;42.58;96961.45;127592;1092;23889;-83
2021/08/22 06:30:58;;;;;;;8.90;5.30;;;;;;;31.73;41.33;96959.05;127604;1092;26859;-83
2021/08/22 06:33:30;;;;;;;6.13;5.48;;;;;;;32.10;40.20;96963.72;127536;1093;29800;-83
2021/08/22 06:36:06;;;;;;;6.33;5.20;;;;;;;32.31;40.38;96959.93;127584;1093;26110;-84
2021/08/22 06:38:38;;;;;;;6.28;5.28;;;;;;;32.98;40.15;96954.66;127624;1093;25028;-83
2021/08/22 06:41:10;;;;;;;5.30;4.80;;;;;;;33.73;38.38;96958.85;127606;1093;23676;-83
2021/08/22 06:43:41;;;;;;;6.05;4.95;;;;;;;34.14;37.78;96958.45;127563;1093;25734;-83
2021/08/22 06:46:13;;;;;;;7.30;4.95;;;;;;;34.32;37.70;96950.58;127639;1092;25424;-83
2021/08/22 06:48:44;;;;;;;6.53;5.20;;;;;;;34.73;36.86;96961.09;127611;1093;23919;-83
2021/08/22 06:51:24;;;;;;;5.60;4.45;;;;;;;35.09;36.43;96961.05;127659;1092;26670;-84
2021/08/22 06:53:56;;;;;;;5.75;5.15;;;;;;;35.10;35.99;96959.07;127562;1093;40559;-83
2021/08/22 06:56:28;;;;;;;6.70;5.50;;;;;;;35.22;35.23;96957.59;127673;1093;24767;-83
2021/08/22 06:58:59;;;;;;;5.63;5.03;;;;;;;35.52;35.58;96964.73;127625;1092;25652;-84
2021/08/22 07:01:31;;;;;;;6.25;5.15;;;;;;;36.19;35.38;96965.63;127634;1093;32812;-84
2021/08/22 07:04:03;;;;;;;5.80;4.55;;;;;;;36.98;34.45;96966.02;127546;1093;28634;-84
2021/08/22 07:06:36;;;;;;;5.60;5.10;;;;;;;36.74;33.29;96963.60;127576;1093;24444;-84
2021/08/22 07:09:09;;;;;;;5.55;4.75;;;;;;;37.09;32.58;96964.46;127581;1093;25279;-84
2021/08/22 07:11:41;;;;;;;6.23;4.78;;;;;;;37.53;32.90;96964.59;127561;1093;25323;-84
2021/08/22 07:14:12;;;;;;;5.18;4.50;;;;;;;37.73;31.06;96965.10;127569;1093;24032;-83
2021/08/22 07:16:44;;;;;;;5.65;4.40;;;;;;;37.52;31.77;96957.51;127589;1092;26372;-84
2021/08/22 07:19:16;;;;;;;6.40;4.60;;;;;;;37.77;31.45;96951.13;127582;1093;31974;-83
2021/08/22 07:21:47;;;;;;;4.88;4.15;;;;;;;37.44;31.37;96965.30;127580;1093;23683;-84
2021/08/22 07:24:19;;;;;;;5.38;4.85;;;;;;;37.36;31.47;96965.98;127558;1093;25233;-83
2021/08/22 07:26:50;;;;;;;4.33;3.88;;;;;;;37.86;31.08;96956.70;127568;1093;24805;-84
2021/08/22 07:29:22;;;;;;;4.40;4.00;;;;;;;37.88;30.41;96953.52;127609;1093;24002;-84
2021/08/22 07:31:53;;;;;;;4.90;4.23;;;;;;;38.27;30.09;96955.61;127645;1091;25607;-83
2021/08/22 07:34:25;;;;;;;4.08;3.43;;;;;;;38.55;29.92;96950.19;127573;1093;22858;-83
2021/08/22 07:36:57;;;;;;;4.90;4.05;;;;;;;38.89;28.75;96952.81;127540;1093;80378;-84
2021/08/22 07:39:28;;;;;;;4.08;3.60;;;;;;;38.74;29.62;96956.63;127596;1093;27535;-83
2021/08/22 07:42:00;;;;;;;5.38;3.95;;;;;;;39.32;28.89;96958.63;127592;1093;25661;-83
2021/08/22 07:44:31;;;;;;;4.80;3.90;;;;;;;39.84;28.99;96957.58;127561;1092;55257;-83
2021/08/22 07:47:03;;;;;;;4.90;3.58;;;;;;;40.58;27.93;96958.20;127582;1093;22829;-83
2021/08/22 07:49:35;;;;;;;4.28;3.78;;;;;;;40.14;26.53;96949.53;127564;1093;29392;-83
2021/08/22 07:52:07;;;;;;;4.75;3.65;;;;;;;39.87;26.94;96953.10;127550;1093;22792;-83
2021/08/22 07:54:38;;;;;;;4.00;3.60;;;;;;;39.84;27.11;96957.58;127561;1093;24133;-83
2021/08/22 07:57:10;;;;;;;4.53;3.65;;;;;;;39.89;26.98;96958.95;127663;1093;27546;-83
2021/08/22 07:59:42;;;;;;;4.20;3.78;;;;;;;39.76;26.62;96953.56;127565;1093;37591;-83
2021/08/22 08:02:14;;;;;;;4.60;3.63;;;;;;;40.11;26.30;96958.77;127591;1093;35672;-83
2021/08/22 08:04:45;;;;;;;4.08;3.18;;;;;;;40.26;26.37;96965.22;127569;1093;25374;-83
2021/08/22 08:07:17;;;;;;;4.25;3.53;;;;;;;40.29;25.82;96959.52;127607;1092;24414;-83
2021/08/22 08:09:48;;;;;;;4.28;3.55;;;;;;;39.98;25.68;96961.76;127568;1093;24278;-83
2021/08/22 08:12:20;;;;;;;4.15;3.55;;;;;;;39.60;25.78;96954.66;127586;1093;25396;-83
2021/08/22 08:14:51;;;;;;;6.15;3.60;;;;;;;39.32;27.16;96961.41;127656;1092;25413;-83
2021/08/22 08:17:22;;;;;;;3.88;3.20;;;;;;;38.88;24.52;96956.82;127651;1092;23891;-83
2021/08/22 08:19:54;;;;;;;4.53;3.78;;;;;;;37.72;26.61;96966.27;127668;1093;26309;-83
2021/08/22 08:22:25;;;;;;;6.00;3.58;;;;;;;36.98;26.86;96964.03;127517;1093;29910;-83
2021/08/22 08:24:57;;;;;;;4.03;3.45;;;;;;;36.16;27.44;96968.48;127552;1093;25906;-83
2021/08/22 08:27:29;;;;;;;4.63;3.65;;;;;;;35.66;27.96;96953.31;127586;1092;25366;-83
2021/08/22 08:30:00;;;;;;;3.95;3.15;;;;;;;34.71;28.76;96963.50;127720;1093;36910;-83
2021/08/22 08:32:32;;;;;;;5.53;3.88;;;;;;;34.11;29.51;96960.08;127587;1093;23701;-83
2021/08/22 08:35:04;;;;;;;4.58;3.55;;;;;;;33.63;30.48;96953.13;127541;1093;73978;-83
2021/08/22 08:37:35;;;;;;;4.93;3.80;;;;;;;33.02;30.75;96953.41;127606;1093;24199;-83
2021/08/22 08:40:09;;;;;;;5.60;3.90;;;;;;;32.13;32.06;96956.63;127536;1092;25717;-83
2021/08/22 08:42:41;;;;;;;4.78;3.83;;;;;;;31.41;32.45;96947.63;127577;1092;23658;-83
2021/08/22 08:45:18;;;;;;;4.68;3.80;;;;;;;31.15;33.43;96952.52;127601;1093;26372;-83
2021/08/22 08:47:52;;;;;;;5.53;3.90;;;;;;;30.88;34.41;96948.84;127548;1092;32897;-83
2021/08/22 08:50:28;;;;;;;6.93;4.55;;;;;;;30.42;34.47;96950.69;127645;1093;25645;-83
2021/08/22 08:53:04;;;;;;;5.10;3.80;;;;;;;29.93;34.69;96959.88;127559;1093;34770;-82
2021/08/22 08:55:37;;;;;;;5.08;4.08;;;;;;;29.11;35.52;96948.31;127536;1093;38541;-82
2021/08/22 08:58:08;;;;;;;5.00;4.10;;;;;;;28.41;37.20;96953.30;127562;1093;29151;-82
2021/08/22 09:00:40;;;;;;;5.03;4.10;;;;;;;28.50;37.93;96952.94;127894;1093;26268;-83
2021/08/22 09:03:13;;;;;;;4.58;3.78;;;;;;;28.63;37.19;96948.67;127582;1093;24543;-83
2021/08/22 09:06:29;;;;;;;4.93;3.98;;;;;;;28.35;37.39;96943.95;127638;1093;27319;-80
2021/08/22 09:09:40;;;;;;;6.58;3.95;;;;;;;28.52;38.98;96940.47;127563;1093;24748;-82
2021/08/22 09:15:48;;;;;;;5.63;4.08;;;;;;;28.36;38.89;96943.56;127495;1092;24167;-83
2021/08/22 09:18:35;;;;;;;;;;;;;;;28.28;38.73;96947.42;127553;1097;24063;-83
2021/08/22 09:21:52;;;;;;;4.35;3.75;;;;;;;27.91;38.47;96946.89;127554;1095;27951;-82
2021/08/22 09:25:09;;;;;;;4.98;3.88;;;;;;;27.01;39.27;96950.98;127596;1093;23687;-83
2021/08/22 09:28:17;;;;;;;5.40;4.10;;;;;;;26.80;40.77;96951.57;127934;1093;24569;-82
2021/08/22 09:31:21;;;;;;;5.60;3.93;;;;;;;26.89;40.58;96943.88;127977;1093;26251;-83
2021/08/22 09:34:25;;;;;;;3.98;3.33;;;;;;;27.02;40.57;96941.66;127979;1092;31733;-83
2021/08/22 09:37:32;;;;;;;4.60;3.73;;;;;;;27.01;40.42;96939.31;127752;1092;25466;-82
2021/08/22 09:40:38;;;;;;;5.20;4.13;;;;;;;26.67;40.55;96933.19;127921;1093;30407;-83
2021/08/22 09:43:49;;;;;;;4.30;3.40;;;;;;;26.51;40.94;96933.44;127986;1093;23408;-82
2021/08/22 09:46:55;;;;;;;5.68;4.10;;;;;;;26.33;42.23;96928.58;128043;1093;24523;-83
2021/08/22 09:50:02;;;;;;;4.10;3.33;;;;;;;26.50;41.60;96934.59;127931;1093;36233;-83
2021/08/22 09:53:06;;;;;;;4.55;3.43;;;;;;;26.53;42.21;96936.55;127965;1093;24901;-83
2021/08/22 09:56:17;;;;;;;4.20;3.20;;;;;;;26.55;42.20;96945.12;127924;1093;32495;-83
2021/08/22 09:59:07;;;;;;;;;;;;;;;26.52;39.67;96938.49;127708;1093;31832;-83
2021/08/22 10:02:18;;;;;;;3.75;2.95;;;;;;;26.43;40.56;96935.29;127981;1093;23465;-82
2021/08/22 10:05:22;;;;;;;3.85;2.73;;;;;;;26.38;39.95;96929.42;128004;1093;22823;-82
2021/08/22 10:08:06;;;;;;;3.20;2.90;;;;;;;26.36;39.77;96929.02;128015;1092;26289;-82
2021/08/22 10:10:43;;;;;;;4.75;3.08;;;;;;;26.33;40.09;96930.52;127979;1093;25162;-82
2021/08/22 10:13:15;;;;;;;4.38;3.15;;;;;;;26.37;40.15;96928.64;127951;1092;26855;-83
2021/08/22 10:15:47;;;;;;;4.15;3.50;;;;;;;26.39;40.80;96929.04;128000;1093;23907;-82
2021/08/22 10:18:24;;;;;;;4.90;3.20;;;;;;;26.45;40.90;96924.81;127967;1093;23975;-82
2021/08/22 10:21:06;;;;;;;4.78;3.50;;;;;;;26.39;41.21;96920.11;127992;1093;23642;-82
2021/08/22 10:23:55;;;;;;;5.03;3.50;;;;;;;26.30;40.61;96914.93;127997;1093;23724;-83
2021/08/22 10:26:49;;;;;;;3.88;3.00;;;;;;;25.95;40.19;96923.49;128007;1093;22952;-82
2021/08/22 10:29:25;;;;;;;3.88;3.10;;;;;;;25.68;39.91;96909.17;128005;1092;23284;-82
2021/08/22 10:32:13;;;;;;;4.83;2.95;;;;;;;25.66;40.98;96908.76;128009;1093;23515;-82
2021/08/22 10:34:47;;;;;;;4.38;3.05;;;;;;;25.51;40.43;96907.02;128007;1092;24886;-83
2021/08/22 10:37:30;;;;;;;4.68;2.83;;;;;;;25.34;41.37;96911.84;127978;1093;23931;-82
2021/08/22 10:40:32;;;;;;;4.63;3.53;;;;;;;25.40;41.67;96912.30;127954;1093;24853;-83
2021/08/22 10:43:39;;;;;;;3.68;3.15;;;;;;;25.40;42.01;96915.00;127943;1093;22819;-82
2021/08/22 10:46:11;;;;;;;4.43;3.38;;;;;;;25.37;42.00;96911.09;127865;1093;63143;-82
2021/08/22 10:48:53;;;;;;;3.68;2.95;;;;;;;25.44;42.31;96916.61;127908;1093;35889;-82
2021/08/22 10:51:28;;;;;;;3.88;2.98;;;;;;;25.53;42.19;96908.20;128044;1093;35206;-82
2021/08/22 10:54:19;;;;;;;4.73;2.98;;;;;;;25.45;42.29;96909.25;127980;1092;25335;-82
2021/08/22 10:56:48;;;;;;;;;;;;;;;25.46;42.54;96903.45;128030;1092;26964;-83
2021/08/22 10:59:20;;;;;;;3.30;3.00;;;;;;;25.36;42.63;96914.97;128000;1093;23936;-83
2021/08/22 11:01:52;;;;;;;3.53;3.13;;;;;;;25.39;43.39;96918.88;128046;1093;25554;-82
2021/08/22 11:04:25;;;;;;;3.50;2.83;;;;;;;25.45;42.83;96910.03;128041;1093;24059;-82
2021/08/22 11:07:03;;;;;;;3.58;3.03;;;;;;;25.57;43.31;96909.02;128011;1093;23460;-81
2021/08/22 11:09:43;;;;;;;3.70;2.88;;;;;;;25.66;43.37;96911.47;127988;1093;23923;-82
2021/08/22 11:12:29;;;;;;;3.80;2.93;;;;;;;25.82;42.64;96919.45;127963;1093;24078;-83
2021/08/22 11:15:05;;;;;;;3.48;2.68;;;;;;;25.88;43.75;96913.31;127993;1092;28326;-82
2021/08/22 11:17:38;;;;;;;3.03;2.73;;;;;;;25.99;42.66;96903.35;127953;1093;37311;-83
2021/08/22 11:20:16;;;;;;;3.55;2.63;;;;;;;26.12;43.29;96898.45;127982;1093;23241;-83
2021/08/22 11:22:50;;;;;;;3.05;2.40;;;;;;;26.03;41.75;96906.88;127917;1092;73387;-83
2021/08/22 11:25:25;;;;;;;5.23;2.97;;;;;;;25.67;41.08;96896.74;127973;1093;78708;-82
2021/08/22 11:28:08;;;;;;;3.35;2.73;;;;;;;25.44;42.15;96905.75;127955;1093;31665;-82
2021/08/22 11:30:41;;;;;;;4.50;3.00;;;;;;;25.26;42.66;96899.31;127946;1093;23439;-83
2021/08/22 11:33:14;;;;;;;3.75;2.60;;;;;;;25.14;42.66;96908.44;128015;1092;25480;-83
2021/08/22 11:35:47;;;;;;;4.83;2.90;;;;;;;25.14;42.87;96902.23;127989;1093;24581;-82
2021/08/22 11:38:19;;;;;;;4.30;2.95;;;;;;;25.32;44.22;96905.97;127965;1093;26033;-83
2021/08/22 11:41:00;;;;;;;6.35;2.85;;;;;;;25.39;43.91;96895.23;127918;1093;26252;-82
2021/08/22 11:43:33;;;;;;;3.80;2.90;;;;;;;25.42;44.86;96897.20;127980;1093;22939;-82
2021/08/22 11:46:04;;;;;;;3.63;2.90;;;;;;;25.42;45.03;96899.13;128001;1093;25808;-82
2021/08/22 11:48:36;;;;;;;4.48;2.58;;;;;;;25.54;45.33;96892.70;127975;1093;23607;-82
2021/08/22 11:51:09;;;;;;;3.63;2.75;;;;;;;25.62;44.46;96899.80;127979;1093;25082;-83
2021/08/22 11:53:40;;;;;;;4.43;2.95;;;;;;;25.57;44.45;96894.67;127956;1093;23701;-83
2021/08/22 11:56:12;;;;;;;3.10;2.70;;;;;;;25.50;44.75;96894.59;127956;1093;24109;-83
2021/08/22 11:58:44;;;;;;;4.48;3.40;;;;;;;25.55;45.48;96897.75;127998;1093;23476;-82
2021/08/22 12:01:20;;;;;;;4.78;3.48;;;;;;;25.52;44.87;96905.86;127950;1093;58822;-82
2021/08/22 12:04:02;;;;;;;3.53;2.83;;;;;;;25.65;44.89;96899.05;128020;1092;24678;-82
2021/08/22 12:06:34;;;;;;;4.30;3.18;;;;;;;25.69;43.46;96900.67;127999;1093;27522;-82